sensor_id;sensor_type;location;lat;lon;timestamp;P1;durP1;ratioP1;P2;durP2;ratioP2
84780;SDS011;75011;50.086;19.886;2024-03-07T00:01:25;30.75;;;14.20;;
84780;SDS011;75011;50.086;19.886;2024-03-07T00:04:25;35.47;;;14.05;;
84780;SDS011;75011;50.086;19.886;2024-03-07T00:07:26;32.40;;;14.35;;
84780;SDS011;75011;50.086;19.886;2024-03-07T00:10:26;34.13;;;15.35;;
84780;SDS011;75011;50.086;19.886;2024-03-07T00:13:28;31.17;;;13.77;;
84780;SDS011;75011;50.086;19.886;2024-03-07T00:16:28;32.85;;;14.73;;
84780;SDS011;75011;50.086;19.886;2024-03-07T00:19:29;30.73;;;13.85;;
84780;SDS011;75011;50.086;19.886;2024-03-07T00:22:29;28.25;;;13.23;;
84780;SDS011;75011;50.086;19.886;2024-03-07T00:25:30;33.58;;;15.07;;
84780;SDS011;75011;50.086;19.886;2024-03-07T00:28:32;29.33;;;14.02;;
84780;SDS011;75011;50.086;19.886;2024-03-07T00:31:32;31.77;;;16.92;;
84780;SDS011;75011;50.086;19.886;2024-03-07T00:34:33;33.40;;;15.32;;
84780;SDS011;75011;50.086;19.886;2024-03-07T00:37:34;34.65;;;15.75;;
84780;SDS011;75011;50.086;19.886;2024-03-07T00:40:34;33.55;;;15.95;;
84780;SDS011;75011;50.086;19.886;2024-03-07T00:43:36;34.88;;;14.75;;
84780;SDS011;75011;50.086;19.886;2024-03-07T00:46:36;33.35;;;16.20;;
84780;SDS011;75011;50.086;19.886;2024-03-07T00:49:37;33.30;;;15.77;;
84780;SDS011;75011;50.086;19.886;2024-03-07T00:52:38;34.00;;;16.17;;
84780;SDS011;75011;50.086;19.886;2024-03-07T00:55:38;33.95;;;16.00;;
84780;SDS011;75011;50.086;19.886;2024-03-07T00:58:40;38.20;;;17.27;;
84780;SDS011;75011;50.086;19.886;2024-03-07T01:01:41;35.80;;;16.88;;
84780;SDS011;75011;50.086;19.886;2024-03-07T01:04:41;38.60;;;16.58;;
84780;SDS011;75011;50.086;19.886;2024-03-07T01:07:42;38.10;;;16.75;;
84780;SDS011;75011;50.086;19.886;2024-03-07T01:10:42;32.45;;;16.35;;
84780;SDS011;75011;50.086;19.886;2024-03-07T01:13:44;37.25;;;17.17;;
84780;SDS011;75011;50.086;19.886;2024-03-07T01:16:44;40.50;;;16.40;;
84780;SDS011;75011;50.086;19.886;2024-03-07T01:19:45;35.63;;;15.85;;
84780;SDS011;75011;50.086;19.886;2024-03-07T01:22:45;29.70;;;14.85;;
84780;SDS011;75011;50.086;19.886;2024-03-07T01:25:46;40.38;;;15.75;;
84780;SDS011;75011;50.086;19.886;2024-03-07T01:28:48;35.60;;;15.20;;
84780;SDS011;75011;50.086;19.886;2024-03-07T01:31:48;36.85;;;15.57;;
84780;SDS011;75011;50.086;19.886;2024-03-07T01:34:49;31.88;;;15.15;;
84780;SDS011;75011;50.086;19.886;2024-03-07T01:37:49;30.38;;;15.45;;
84780;SDS011;75011;50.086;19.886;2024-03-07T01:40:50;31.98;;;15.20;;
84780;SDS011;75011;50.086;19.886;2024-03-07T01:43:51;35.45;;;15.77;;
84780;SDS011;75011;50.086;19.886;2024-03-07T01:46:52;37.08;;;17.05;;
84780;SDS011;75011;50.086;19.886;2024-03-07T01:49:53;34.65;;;16.15;;
84780;SDS011;75011;50.086;19.886;2024-03-07T01:52:53;39.00;;;16.00;;
84780;SDS011;75011;50.086;19.886;2024-03-07T01:55:55;37.20;;;17.10;;
84780;SDS011;75011;50.086;19.886;2024-03-07T01:58:58;35.55;;;15.55;;
84780;SDS011;75011;50.086;19.886;2024-03-07T02:02:01;37.40;;;15.98;;
84780;SDS011;75011;50.086;19.886;2024-03-07T02:05:02;36.60;;;16.20;;
84780;SDS011;75011;50.086;19.886;2024-03-07T02:08:03;42.58;;;18.50;;
84780;SDS011;75011;50.086;19.886;2024-03-07T02:11:04;35.20;;;15.05;;
84780;SDS011;75011;50.086;19.886;2024-03-07T02:14:06;36.60;;;15.93;;
84780;SDS011;75011;50.086;19.886;2024-03-07T02:17:06;37.78;;;16.23;;
84780;SDS011;75011;50.086;19.886;2024-03-07T02:20:08;37.67;;;15.48;;
84780;SDS011;75011;50.086;19.886;2024-03-07T02:23:10;32.67;;;15.70;;
84780;SDS011;75011;50.086;19.886;2024-03-07T02:26:11;36.42;;;16.05;;
84780;SDS011;75011;50.086;19.886;2024-03-07T02:29:12;38.40;;;16.02;;
84780;SDS011;75011;50.086;19.886;2024-03-07T02:32:12;36.17;;;15.48;;
84780;SDS011;75011;50.086;19.886;2024-03-07T02:35:13;31.27;;;14.70;;
84780;SDS011;75011;50.086;19.886;2024-03-07T02:38:15;35.88;;;17.30;;
84780;SDS011;75011;50.086;19.886;2024-03-07T02:41:15;35.38;;;16.42;;
84780;SDS011;75011;50.086;19.886;2024-03-07T02:44:16;36.55;;;18.20;;
84780;SDS011;75011;50.086;19.886;2024-03-07T02:47:16;37.55;;;16.35;;
84780;SDS011;75011;50.086;19.886;2024-03-07T02:50:17;39.58;;;16.48;;
84780;SDS011;75011;50.086;19.886;2024-03-07T02:53:19;42.75;;;16.80;;
84780;SDS011;75011;50.086;19.886;2024-03-07T02:56:19;42.17;;;18.38;;
84780;SDS011;75011;50.086;19.886;2024-03-07T02:59:19;37.70;;;17.48;;
84780;SDS011;75011;50.086;19.886;2024-03-07T03:02:20;40.90;;;17.15;;
84780;SDS011;75011;50.086;19.886;2024-03-07T03:05:21;39.33;;;17.02;;
84780;SDS011;75011;50.086;19.886;2024-03-07T03:08:23;39.88;;;17.70;;
84780;SDS011;75011;50.086;19.886;2024-03-07T03:11:23;42.45;;;17.40;;
84780;SDS011;75011;50.086;19.886;2024-03-07T03:14:24;44.22;;;18.50;;
84780;SDS011;75011;50.086;19.886;2024-03-07T03:17:24;48.42;;;18.08;;
84780;SDS011;75011;50.086;19.886;2024-03-07T03:20:25;39.65;;;17.42;;
84780;SDS011;75011;50.086;19.886;2024-03-07T03:23:27;36.00;;;16.02;;
84780;SDS011;75011;50.086;19.886;2024-03-07T03:26:28;36.78;;;17.50;;
84780;SDS011;75011;50.086;19.886;2024-03-07T03:29:28;44.60;;;17.67;;
84780;SDS011;75011;50.086;19.886;2024-03-07T03:32:29;47.33;;;17.88;;
84780;SDS011;75011;50.086;19.886;2024-03-07T03:35:29;42.20;;;17.50;;
84780;SDS011;75011;50.086;19.886;2024-03-07T03:38:31;43.75;;;17.55;;
84780;SDS011;75011;50.086;19.886;2024-03-07T03:41:31;47.45;;;18.92;;
84780;SDS011;75011;50.086;19.886;2024-03-07T03:44:32;44.55;;;17.88;;
84780;SDS011;75011;50.086;19.886;2024-03-07T03:47:33;45.70;;;18.38;;
84780;SDS011;75011;50.086;19.886;2024-03-07T03:50:34;39.15;;;17.70;;
84780;SDS011;75011;50.086;19.886;2024-03-07T03:53:36;44.75;;;17.95;;
84780;SDS011;75011;50.086;19.886;2024-03-07T03:56:36;40.38;;;17.10;;
84780;SDS011;75011;50.086;19.886;2024-03-07T03:59:37;39.03;;;16.45;;
84780;SDS011;75011;50.086;19.886;2024-03-07T04:02:37;42.20;;;18.17;;
84780;SDS011;75011;50.086;19.886;2024-03-07T04:05:38;41.78;;;17.63;;
84780;SDS011;75011;50.086;19.886;2024-03-07T04:08:40;46.15;;;18.83;;
84780;SDS011;75011;50.086;19.886;2024-03-07T04:11:41;42.97;;;17.95;;
84780;SDS011;75011;50.086;19.886;2024-03-07T04:14:42;38.20;;;17.67;;
84780;SDS011;75011;50.086;19.886;2024-03-07T04:17:43;41.42;;;17.90;;
84780;SDS011;75011;50.086;19.886;2024-03-07T04:20:43;41.47;;;17.65;;
84780;SDS011;75011;50.086;19.886;2024-03-07T04:23:45;44.15;;;17.88;;
84780;SDS011;75011;50.086;19.886;2024-03-07T04:26:46;46.40;;;19.08;;
84780;SDS011;75011;50.086;19.886;2024-03-07T04:29:46;41.72;;;18.58;;
84780;SDS011;75011;50.086;19.886;2024-03-07T04:32:47;43.83;;;18.77;;
84780;SDS011;75011;50.086;19.886;2024-03-07T04:35:48;47.67;;;18.90;;
84780;SDS011;75011;50.086;19.886;2024-03-07T04:38:49;42.42;;;17.75;;
84780;SDS011;75011;50.086;19.886;2024-03-07T04:41:50;45.13;;;18.52;;
84780;SDS011;75011;50.086;19.886;2024-03-07T04:44:51;39.13;;;18.40;;
84780;SDS011;75011;50.086;19.886;2024-03-07T04:47:51;45.03;;;18.15;;
84780;SDS011;75011;50.086;19.886;2024-03-07T04:50:52;45.42;;;18.75;;
84780;SDS011;75011;50.086;19.886;2024-03-07T04:53:54;47.28;;;18.05;;
84780;SDS011;75011;50.086;19.886;2024-03-07T04:56:54;41.90;;;17.95;;
84780;SDS011;75011;50.086;19.886;2024-03-07T04:59:55;40.92;;;17.95;;
84780;SDS011;75011;50.086;19.886;2024-03-07T05:02:55;47.15;;;19.77;;
84780;SDS011;75011;50.086;19.886;2024-03-07T05:05:56;47.75;;;18.60;;
84780;SDS011;75011;50.086;19.886;2024-03-07T05:08:58;47.05;;;20.92;;
84780;SDS011;75011;50.086;19.886;2024-03-07T05:11:59;42.42;;;18.83;;
84780;SDS011;75011;50.086;19.886;2024-03-07T05:14:59;45.58;;;19.42;;
84780;SDS011;75011;50.086;19.886;2024-03-07T05:18:00;44.97;;;19.40;;
84780;SDS011;75011;50.086;19.886;2024-03-07T05:21:00;48.25;;;19.67;;
84780;SDS011;75011;50.086;19.886;2024-03-07T05:24:02;46.53;;;19.42;;
84780;SDS011;75011;50.086;19.886;2024-03-07T05:27:04;49.50;;;20.40;;
84780;SDS011;75011;50.086;19.886;2024-03-07T05:30:05;48.05;;;21.48;;
84780;SDS011;75011;50.086;19.886;2024-03-07T05:33:06;50.75;;;19.58;;
84780;SDS011;75011;50.086;19.886;2024-03-07T05:36:07;46.10;;;20.02;;
84780;SDS011;75011;50.086;19.886;2024-03-07T05:39:09;52.53;;;22.85;;
84780;SDS011;75011;50.086;19.886;2024-03-07T05:42:10;46.25;;;20.40;;
84780;SDS011;75011;50.086;19.886;2024-03-07T05:45:10;47.88;;;19.85;;
84780;SDS011;75011;50.086;19.886;2024-03-07T05:48:14;50.03;;;20.38;;
84780;SDS011;75011;50.086;19.886;2024-03-07T05:51:15;42.50;;;17.85;;
84780;SDS011;75011;50.086;19.886;2024-03-07T05:54:17;45.20;;;18.80;;
84780;SDS011;75011;50.086;19.886;2024-03-07T05:57:17;43.72;;;20.60;;
84780;SDS011;75011;50.086;19.886;2024-03-07T06:00:18;45.20;;;19.73;;
84780;SDS011;75011;50.086;19.886;2024-03-07T06:03:19;41.25;;;18.35;;
84780;SDS011;75011;50.086;19.886;2024-03-07T06:06:19;38.72;;;18.88;;
84780;SDS011;75011;50.086;19.886;2024-03-07T06:09:21;45.97;;;19.25;;
84780;SDS011;75011;50.086;19.886;2024-03-07T06:12:21;40.28;;;18.23;;
84780;SDS011;75011;50.086;19.886;2024-03-07T06:15:22;41.05;;;18.40;;
84780;SDS011;75011;50.086;19.886;2024-03-07T06:18:22;51.20;;;19.83;;
84780;SDS011;75011;50.086;19.886;2024-03-07T06:21:23;42.75;;;18.73;;
84780;SDS011;75011;50.086;19.886;2024-03-07T06:24:25;43.15;;;20.75;;
84780;SDS011;75011;50.086;19.886;2024-03-07T06:27:25;42.80;;;18.63;;
84780;SDS011;75011;50.086;19.886;2024-03-07T06:30:26;45.55;;;19.38;;
84780;SDS011;75011;50.086;19.886;2024-03-07T06:33:26;47.05;;;19.63;;
84780;SDS011;75011;50.086;19.886;2024-03-07T06:36:27;40.25;;;17.67;;
84780;SDS011;75011;50.086;19.886;2024-03-07T06:39:28;40.83;;;18.80;;
84780;SDS011;75011;50.086;19.886;2024-03-07T06:42:29;44.17;;;17.50;;
84780;SDS011;75011;50.086;19.886;2024-03-07T06:45:30;43.72;;;18.92;;
84780;SDS011;75011;50.086;19.886;2024-03-07T06:48:30;46.05;;;18.95;;
84780;SDS011;75011;50.086;19.886;2024-03-07T06:51:31;42.97;;;20.20;;
84780;SDS011;75011;50.086;19.886;2024-03-07T06:54:33;42.88;;;18.92;;
84780;SDS011;75011;50.086;19.886;2024-03-07T06:57:33;46.92;;;18.33;;
84780;SDS011;75011;50.086;19.886;2024-03-07T07:00:34;41.97;;;17.75;;
84780;SDS011;75011;50.086;19.886;2024-03-07T07:03:34;44.80;;;18.83;;
84780;SDS011;75011;50.086;19.886;2024-03-07T07:06:35;45.13;;;19.08;;
84780;SDS011;75011;50.086;19.886;2024-03-07T07:09:36;44.05;;;17.42;;
84780;SDS011;75011;50.086;19.886;2024-03-07T07:12:37;46.22;;;19.13;;
84780;SDS011;75011;50.086;19.886;2024-03-07T07:15:37;45.28;;;19.05;;
84780;SDS011;75011;50.086;19.886;2024-03-07T07:18:38;41.85;;;18.58;;
84780;SDS011;75011;50.086;19.886;2024-03-07T07:21:38;45.97;;;19.00;;
84780;SDS011;75011;50.086;19.886;2024-03-07T07:24:40;40.10;;;19.08;;
84780;SDS011;75011;50.086;19.886;2024-03-07T07:27:41;40.50;;;17.10;;
84780;SDS011;75011;50.086;19.886;2024-03-07T07:30:43;39.88;;;17.50;;
84780;SDS011;75011;50.086;19.886;2024-03-07T07:33:43;37.20;;;17.30;;
84780;SDS011;75011;50.086;19.886;2024-03-07T07:36:44;41.00;;;17.13;;
84780;SDS011;75011;50.086;19.886;2024-03-07T07:39:46;41.63;;;17.08;;
84780;SDS011;75011;50.086;19.886;2024-03-07T07:42:47;44.33;;;18.13;;
84780;SDS011;75011;50.086;19.886;2024-03-07T07:45:49;34.90;;;16.98;;
84780;SDS011;75011;50.086;19.886;2024-03-07T07:48:49;33.80;;;16.70;;
84780;SDS011;75011;50.086;19.886;2024-03-07T07:51:50;37.22;;;18.45;;
84780;SDS011;75011;50.086;19.886;2024-03-07T07:54:52;38.03;;;16.55;;
84780;SDS011;75011;50.086;19.886;2024-03-07T07:57:52;39.47;;;16.85;;
84780;SDS011;75011;50.086;19.886;2024-03-07T08:00:54;33.78;;;16.27;;
84780;SDS011;75011;50.086;19.886;2024-03-07T08:03:55;39.60;;;16.90;;
84780;SDS011;75011;50.086;19.886;2024-03-07T08:06:55;34.65;;;16.83;;
84780;SDS011;75011;50.086;19.886;2024-03-07T08:09:57;35.10;;;16.70;;
84780;SDS011;75011;50.086;19.886;2024-03-07T08:12:58;35.40;;;16.80;;
84780;SDS011;75011;50.086;19.886;2024-03-07T08:15:59;35.60;;;16.38;;
84780;SDS011;75011;50.086;19.886;2024-03-07T08:18:59;37.97;;;17.40;;
84780;SDS011;75011;50.086;19.886;2024-03-07T08:22:00;33.97;;;15.98;;
84780;SDS011;75011;50.086;19.886;2024-03-07T08:25:02;36.72;;;16.10;;
84780;SDS011;75011;50.086;19.886;2024-03-07T08:28:02;34.42;;;17.20;;
84780;SDS011;75011;50.086;19.886;2024-03-07T08:31:03;36.97;;;16.00;;
84780;SDS011;75011;50.086;19.886;2024-03-07T08:34:04;34.22;;;16.55;;
84780;SDS011;75011;50.086;19.886;2024-03-07T08:37:04;35.95;;;17.17;;
84780;SDS011;75011;50.086;19.886;2024-03-07T08:40:07;33.55;;;15.70;;
84780;SDS011;75011;50.086;19.886;2024-03-07T08:43:09;36.97;;;15.82;;
84780;SDS011;75011;50.086;19.886;2024-03-07T08:46:09;36.42;;;16.13;;
84780;SDS011;75011;50.086;19.886;2024-03-07T08:49:10;34.75;;;15.57;;
84780;SDS011;75011;50.086;19.886;2024-03-07T08:52:10;30.92;;;15.70;;
84780;SDS011;75011;50.086;19.886;2024-03-07T08:55:13;33.65;;;15.65;;
84780;SDS011;75011;50.086;19.886;2024-03-07T08:58:14;36.20;;;17.38;;
84780;SDS011;75011;50.086;19.886;2024-03-07T09:01:15;36.22;;;15.88;;
84780;SDS011;75011;50.086;19.886;2024-03-07T09:04:15;36.80;;;17.00;;
84780;SDS011;75011;50.086;19.886;2024-03-07T09:07:16;34.45;;;15.57;;
84780;SDS011;75011;50.086;19.886;2024-03-07T09:10:18;35.05;;;15.77;;
84780;SDS011;75011;50.086;19.886;2024-03-07T09:13:19;33.85;;;16.25;;
84780;SDS011;75011;50.086;19.886;2024-03-07T09:16:19;33.97;;;15.38;;
84780;SDS011;75011;50.086;19.886;2024-03-07T09:19:20;34.42;;;16.33;;
84780;SDS011;75011;50.086;19.886;2024-03-07T09:22:20;33.20;;;15.30;;
84780;SDS011;75011;50.086;19.886;2024-03-07T09:25:22;34.38;;;16.27;;
84780;SDS011;75011;50.086;19.886;2024-03-07T09:28:23;33.08;;;16.15;;
84780;SDS011;75011;50.086;19.886;2024-03-07T09:31:23;33.25;;;15.70;;
84780;SDS011;75011;50.086;19.886;2024-03-07T09:34:24;32.30;;;16.35;;
84780;SDS011;75011;50.086;19.886;2024-03-07T09:37:24;33.20;;;16.38;;
84780;SDS011;75011;50.086;19.886;2024-03-07T09:40:26;32.58;;;16.25;;
84780;SDS011;75011;50.086;19.886;2024-03-07T09:43:27;33.22;;;15.40;;
84780;SDS011;75011;50.086;19.886;2024-03-07T09:46:29;35.53;;;15.57;;
84780;SDS011;75011;50.086;19.886;2024-03-07T09:49:30;35.75;;;16.35;;
84780;SDS011;75011;50.086;19.886;2024-03-07T09:52:33;28.88;;;14.98;;
84780;SDS011;75011;50.086;19.886;2024-03-07T09:55:35;34.92;;;15.57;;
84780;SDS011;75011;50.086;19.886;2024-03-07T09:58:35;37.58;;;16.42;;
84780;SDS011;75011;50.086;19.886;2024-03-07T10:01:38;32.17;;;15.88;;
84780;SDS011;75011;50.086;19.886;2024-03-07T10:04:42;37.28;;;16.13;;
84780;SDS011;75011;50.086;19.886;2024-03-07T10:07:43;31.90;;;15.60;;
84780;SDS011;75011;50.086;19.886;2024-03-07T10:10:46;31.50;;;14.70;;
84780;SDS011;75011;50.086;19.886;2024-03-07T10:13:48;29.30;;;13.98;;
84780;SDS011;75011;50.086;19.886;2024-03-07T10:16:49;32.17;;;15.45;;
84780;SDS011;75011;50.086;19.886;2024-03-07T10:19:49;30.92;;;14.80;;
84780;SDS011;75011;50.086;19.886;2024-03-07T10:22:50;33.10;;;15.68;;
84780;SDS011;75011;50.086;19.886;2024-03-07T10:25:51;29.52;;;14.75;;
84780;SDS011;75011;50.086;19.886;2024-03-07T10:28:52;33.55;;;15.80;;
84780;SDS011;75011;50.086;19.886;2024-03-07T10:31:52;32.45;;;15.93;;
84780;SDS011;75011;50.086;19.886;2024-03-07T10:34:53;29.77;;;14.88;;
84780;SDS011;75011;50.086;19.886;2024-03-07T10:37:54;29.08;;;14.90;;
84780;SDS011;75011;50.086;19.886;2024-03-07T10:40:57;32.03;;;14.93;;
84780;SDS011;75011;50.086;19.886;2024-03-07T10:44:01;31.83;;;15.73;;
84780;SDS011;75011;50.086;19.886;2024-03-07T10:47:04;28.77;;;15.73;;
84780;SDS011;75011;50.086;19.886;2024-03-07T10:50:07;31.80;;;15.27;;
84780;SDS011;75011;50.086;19.886;2024-03-07T10:53:15;28.35;;;14.30;;
84780;SDS011;75011;50.086;19.886;2024-03-07T10:56:26;30.23;;;15.00;;
84780;SDS011;75011;50.086;19.886;2024-03-07T10:59:33;27.98;;;14.07;;
84780;SDS011;75011;50.086;19.886;2024-03-07T11:02:41;36.05;;;15.23;;
84780;SDS011;75011;50.086;19.886;2024-03-07T11:05:46;30.17;;;13.93;;
84780;SDS011;75011;50.086;19.886;2024-03-07T11:08:46;29.30;;;15.05;;
84780;SDS011;75011;50.086;19.886;2024-03-07T11:11:49;32.35;;;15.57;;
84780;SDS011;75011;50.086;19.886;2024-03-07T11:14:49;29.52;;;14.13;;
84780;SDS011;75011;50.086;19.886;2024-03-07T11:17:51;33.10;;;14.85;;
84780;SDS011;75011;50.086;19.886;2024-03-07T11:20:52;31.25;;;15.77;;
84780;SDS011;75011;50.086;19.886;2024-03-07T11:23:53;29.38;;;15.13;;
84780;SDS011;75011;50.086;19.886;2024-03-07T11:26:56;25.50;;;13.18;;
84780;SDS011;75011;50.086;19.886;2024-03-07T11:29:58;34.08;;;14.07;;
84780;SDS011;75011;50.086;19.886;2024-03-07T11:33:07;30.92;;;14.38;;
84780;SDS011;75011;50.086;19.886;2024-03-07T11:36:08;32.63;;;15.90;;
84780;SDS011;75011;50.086;19.886;2024-03-07T11:42:43;26.73;;;14.07;;
84780;SDS011;75011;50.086;19.886;2024-03-07T11:45:45;27.40;;;14.98;;
84780;SDS011;75011;50.086;19.886;2024-03-07T11:48:46;28.85;;;16.13;;
84780;SDS011;75011;50.086;19.886;2024-03-07T11:51:46;28.02;;;14.30;;
84780;SDS011;75011;50.086;19.886;2024-03-07T11:54:47;33.17;;;13.77;;
84780;SDS011;75011;50.086;19.886;2024-03-07T11:57:48;32.60;;;14.68;;
84780;SDS011;75011;50.086;19.886;2024-03-07T12:00:50;27.80;;;13.93;;
84780;SDS011;75011;50.086;19.886;2024-03-07T12:03:51;31.35;;;14.60;;
84780;SDS011;75011;50.086;19.886;2024-03-07T12:06:51;30.60;;;14.68;;
84780;SDS011;75011;50.086;19.886;2024-03-07T12:09:52;34.88;;;14.27;;
84780;SDS011;75011;50.086;19.886;2024-03-07T12:12:54;34.42;;;14.75;;
84780;SDS011;75011;50.086;19.886;2024-03-07T12:15:54;31.48;;;15.38;;
84780;SDS011;75011;50.086;19.886;2024-03-07T12:18:55;33.42;;;14.77;;
84780;SDS011;75011;50.086;19.886;2024-03-07T12:21:56;31.10;;;14.63;;
84780;SDS011;75011;50.086;19.886;2024-03-07T12:25:00;35.05;;;15.73;;
84780;SDS011;75011;50.086;19.886;2024-03-07T12:28:06;32.78;;;15.57;;
84780;SDS011;75011;50.086;19.886;2024-03-07T12:31:07;29.67;;;15.50;;
84780;SDS011;75011;50.086;19.886;2024-03-07T12:34:08;31.40;;;15.02;;
84780;SDS011;75011;50.086;19.886;2024-03-07T12:37:08;31.25;;;15.43;;
84780;SDS011;75011;50.086;19.886;2024-03-07T12:40:12;29.13;;;15.90;;
84780;SDS011;75011;50.086;19.886;2024-03-07T12:43:15;34.20;;;14.93;;
84780;SDS011;75011;50.086;19.886;2024-03-07T12:46:17;31.65;;;15.73;;
84780;SDS011;75011;50.086;19.886;2024-03-07T12:49:17;28.02;;;15.35;;
84780;SDS011;75011;50.086;19.886;2024-03-07T12:52:18;26.85;;;14.23;;
84780;SDS011;75011;50.086;19.886;2024-03-07T12:55:18;28.08;;;14.32;;
84780;SDS011;75011;50.086;19.886;2024-03-07T12:58:20;28.23;;;14.45;;
84780;SDS011;75011;50.086;19.886;2024-03-07T13:01:21;31.67;;;14.50;;
84780;SDS011;75011;50.086;19.886;2024-03-07T13:04:21;26.27;;;13.60;;
84780;SDS011;75011;50.086;19.886;2024-03-07T13:07:22;27.75;;;14.90;;
84780;SDS011;75011;50.086;19.886;2024-03-07T13:10:22;25.38;;;13.95;;
84780;SDS011;75011;50.086;19.886;2024-03-07T13:13:24;27.60;;;14.30;;
84780;SDS011;75011;50.086;19.886;2024-03-07T13:16:24;24.67;;;13.93;;
84780;SDS011;75011;50.086;19.886;2024-03-07T13:19:25;26.02;;;13.32;;
84780;SDS011;75011;50.086;19.886;2024-03-07T13:22:25;26.50;;;13.43;;
84780;SDS011;75011;50.086;19.886;2024-03-07T13:25:26;24.55;;;13.00;;
84780;SDS011;75011;50.086;19.886;2024-03-07T13:28:29;23.48;;;11.95;;
84780;SDS011;75011;50.086;19.886;2024-03-07T13:31:29;23.27;;;12.93;;
84780;SDS011;75011;50.086;19.886;2024-03-07T13:34:30;23.33;;;12.30;;
84780;SDS011;75011;50.086;19.886;2024-03-07T13:37:30;23.38;;;12.93;;
84780;SDS011;75011;50.086;19.886;2024-03-07T13:40:31;26.25;;;12.57;;
84780;SDS011;75011;50.086;19.886;2024-03-07T13:43:33;25.05;;;12.20;;
84780;SDS011;75011;50.086;19.886;2024-03-07T13:46:33;22.25;;;10.93;;
84780;SDS011;75011;50.086;19.886;2024-03-07T13:49:34;21.83;;;11.05;;
84780;SDS011;75011;50.086;19.886;2024-03-07T13:52:34;23.67;;;11.40;;
84780;SDS011;75011;50.086;19.886;2024-03-07T13:55:38;19.50;;;10.07;;
84780;SDS011;75011;50.086;19.886;2024-03-07T13:58:54;22.98;;;10.60;;
84780;SDS011;75011;50.086;19.886;2024-03-07T14:02:29;20.73;;;11.90;;
84780;SDS011;75011;50.086;19.886;2024-03-07T14:09:23;18.17;;;9.60;;
84780;SDS011;75011;50.086;19.886;2024-03-07T14:12:42;18.85;;;10.82;;
84780;SDS011;75011;50.086;19.886;2024-03-07T14:16:10;19.23;;;10.80;;
84780;SDS011;75011;50.086;19.886;2024-03-07T14:23:03;17.33;;;10.75;;
84780;SDS011;75011;50.086;19.886;2024-03-07T14:26:14;20.52;;;10.15;;
84780;SDS011;75011;50.086;19.886;2024-03-07T14:29:47;18.30;;;9.27;;
84780;SDS011;75011;50.086;19.886;2024-03-07T14:33:00;17.80;;;9.65;;
84780;SDS011;75011;50.086;19.886;2024-03-07T14:36:02;18.13;;;9.93;;
84780;SDS011;75011;50.086;19.886;2024-03-07T14:39:05;18.65;;;9.35;;
84780;SDS011;75011;50.086;19.886;2024-03-07T14:42:06;18.23;;;8.95;;
84780;SDS011;75011;50.086;19.886;2024-03-07T14:45:07;16.77;;;9.75;;
84780;SDS011;75011;50.086;19.886;2024-03-07T14:48:10;17.40;;;9.35;;
84780;SDS011;75011;50.086;19.886;2024-03-07T14:51:12;17.17;;;8.68;;
84780;SDS011;75011;50.086;19.886;2024-03-07T14:54:13;16.80;;;9.25;;
84780;SDS011;75011;50.086;19.886;2024-03-07T14:57:14;17.45;;;9.85;;
84780;SDS011;75011;50.086;19.886;2024-03-07T15:00:14;20.50;;;8.75;;
84780;SDS011;75011;50.086;19.886;2024-03-07T15:03:17;17.58;;;9.77;;
84780;SDS011;75011;50.086;19.886;2024-03-07T15:06:17;19.65;;;11.07;;
84780;SDS011;75011;50.086;19.886;2024-03-07T15:09:17;18.88;;;8.88;;
84780;SDS011;75011;50.086;19.886;2024-03-07T15:12:18;16.77;;;9.27;;
84780;SDS011;75011;50.086;19.886;2024-03-07T15:15:19;17.20;;;9.02;;
84780;SDS011;75011;50.086;19.886;2024-03-07T15:18:21;15.70;;;8.90;;
84780;SDS011;75011;50.086;19.886;2024-03-07T15:21:21;14.95;;;8.52;;
84780;SDS011;75011;50.086;19.886;2024-03-07T15:24:22;16.65;;;9.45;;
84780;SDS011;75011;50.086;19.886;2024-03-07T15:27:22;17.05;;;9.80;;
84780;SDS011;75011;50.086;19.886;2024-03-07T15:30:23;17.88;;;8.77;;
84780;SDS011;75011;50.086;19.886;2024-03-07T15:33:25;18.30;;;9.10;;
84780;SDS011;75011;50.086;19.886;2024-03-07T15:36:26;16.98;;;8.98;;
84780;SDS011;75011;50.086;19.886;2024-03-07T15:39:27;19.35;;;8.52;;
84780;SDS011;75011;50.086;19.886;2024-03-07T15:42:28;20.52;;;10.95;;
84780;SDS011;75011;50.086;19.886;2024-03-07T15:45:28;18.92;;;10.05;;
84780;SDS011;75011;50.086;19.886;2024-03-07T15:48:30;15.52;;;8.60;;
84780;SDS011;75011;50.086;19.886;2024-03-07T15:51:31;17.60;;;9.52;;
84780;SDS011;75011;50.086;19.886;2024-03-07T15:54:31;17.33;;;9.07;;
84780;SDS011;75011;50.086;19.886;2024-03-07T15:57:32;18.63;;;9.07;;
84780;SDS011;75011;50.086;19.886;2024-03-07T16:00:32;16.60;;;9.05;;
84780;SDS011;75011;50.086;19.886;2024-03-07T16:03:34;18.60;;;10.15;;
84780;SDS011;75011;50.086;19.886;2024-03-07T16:06:34;16.38;;;9.52;;
84780;SDS011;75011;50.086;19.886;2024-03-07T16:09:35;18.58;;;9.50;;
84780;SDS011;75011;50.086;19.886;2024-03-07T16:12:35;17.35;;;9.55;;
84780;SDS011;75011;50.086;19.886;2024-03-07T16:15:36;18.92;;;9.77;;
84780;SDS011;75011;50.086;19.886;2024-03-07T16:18:39;19.23;;;9.63;;
84780;SDS011;75011;50.086;19.886;2024-03-07T16:21:39;18.42;;;10.30;;
84780;SDS011;75011;50.086;19.886;2024-03-07T16:24:44;18.02;;;9.95;;
84780;SDS011;75011;50.086;19.886;2024-03-07T16:27:45;20.60;;;10.50;;
84780;SDS011;75011;50.086;19.886;2024-03-07T16:30:46;17.20;;;10.55;;
84780;SDS011;75011;50.086;19.886;2024-03-07T16:33:47;18.00;;;9.32;;
84780;SDS011;75011;50.086;19.886;2024-03-07T16:36:48;17.33;;;9.75;;
84780;SDS011;75011;50.086;19.886;2024-03-07T16:39:48;17.58;;;9.10;;
84780;SDS011;75011;50.086;19.886;2024-03-07T16:42:49;20.55;;;9.98;;
84780;SDS011;75011;50.086;19.886;2024-03-07T16:45:50;18.50;;;9.65;;
84780;SDS011;75011;50.086;19.886;2024-03-07T16:48:52;19.27;;;10.50;;
84780;SDS011;75011;50.086;19.886;2024-03-07T16:51:53;25.52;;;9.93;;
84780;SDS011;75011;50.086;19.886;2024-03-07T16:54:53;19.00;;;10.52;;
84780;SDS011;75011;50.086;19.886;2024-03-07T16:57:53;19.50;;;11.05;;
84780;SDS011;75011;50.086;19.886;2024-03-07T17:00:54;19.35;;;10.65;;
84780;SDS011;75011;50.086;19.886;2024-03-07T17:03:56;19.58;;;9.48;;
84780;SDS011;75011;50.086;19.886;2024-03-07T17:06:56;18.73;;;10.48;;
84780;SDS011;75011;50.086;19.886;2024-03-07T17:09:57;20.80;;;10.30;;
84780;SDS011;75011;50.086;19.886;2024-03-07T17:12:57;20.75;;;10.52;;
84780;SDS011;75011;50.086;19.886;2024-03-07T17:15:58;22.55;;;11.35;;
84780;SDS011;75011;50.086;19.886;2024-03-07T17:19:00;21.08;;;10.75;;
84780;SDS011;75011;50.086;19.886;2024-03-07T17:22:00;23.23;;;11.18;;
84780;SDS011;75011;50.086;19.886;2024-03-07T17:25:01;21.27;;;11.82;;
84780;SDS011;75011;50.086;19.886;2024-03-07T17:28:02;21.08;;;11.70;;
84780;SDS011;75011;50.086;19.886;2024-03-07T17:31:02;23.13;;;12.15;;
84780;SDS011;75011;50.086;19.886;2024-03-07T17:34:04;19.23;;;10.98;;
84780;SDS011;75011;50.086;19.886;2024-03-07T17:37:05;23.15;;;11.85;;
84780;SDS011;75011;50.086;19.886;2024-03-07T17:40:05;19.25;;;10.90;;